sensor_id;sensor_type;location;lat;lon;timestamp;temperature;humidity
23729;DHT22;12045;60.214;24.724;2023-08-20T00:01:58;15.80;99.90
23729;DHT22;12045;60.214;24.724;2023-08-20T00:04:31;15.70;99.90
23729;DHT22;12045;60.214;24.724;2023-08-20T00:06:59;15.60;99.90
23729;DHT22;12045;60.214;24.724;2023-08-20T00:09:27;15.50;99.90
23729;DHT22;12045;60.214;24.724;2023-08-20T00:11:54;15.40;99.90
23729;DHT22;12045;60.214;24.724;2023-08-20T00:15:01;15.40;99.90
23729;DHT22;12045;60.214;24.724;2023-08-20T00:17:35;15.50;99.90
23729;DHT22;12045;60.214;24.724;2023-08-20T00:20:06;15.40;99.90
23729;DHT22;12045;60.214;24.724;2023-08-20T00:22:41;15.40;99.90
23729;DHT22;12045;60.214;24.724;2023-08-20T00:25:13;15.40;99.90
23729;DHT22;12045;60.214;24.724;2023-08-20T00:27:42;15.40;99.90
23729;DHT22;12045;60.214;24.724;2023-08-20T00:30:10;15.50;99.90
23729;DHT22;12045;60.214;24.724;2023-08-20T00:32:38;15.50;99.90
23729;DHT22;12045;60.214;24.724;2023-08-20T00:35:06;15.50;99.90
23729;DHT22;12045;60.214;24.724;2023-08-20T00:37:35;15.50;99.90
23729;DHT22;12045;60.214;24.724;2023-08-20T00:40:03;15.50;99.90
23729;DHT22;12045;60.214;24.724;2023-08-20T00:42:34;15.50;99.90
23729;DHT22;12045;60.214;24.724;2023-08-20T00:45:02;15.40;99.90
23729;DHT22;12045;60.214;24.724;2023-08-20T00:47:31;15.40;99.90
23729;DHT22;12045;60.214;24.724;2023-08-20T00:49:59;15.40;99.90
23729;DHT22;12045;60.214;24.724;2023-08-20T00:52:27;15.40;99.90
23729;DHT22;12045;60.214;24.724;2023-08-20T00:54:54;15.30;99.90
23729;DHT22;12045;60.214;24.724;2023-08-20T00:57:22;15.30;99.90
23729;DHT22;12045;60.214;24.724;2023-08-20T00:59:50;15.30;99.90
23729;DHT22;12045;60.214;24.724;2023-08-20T01:02:18;15.30;99.90
23729;DHT22;12045;60.214;24.724;2023-08-20T01:04:46;15.30;99.90
23729;DHT22;12045;60.214;24.724;2023-08-20T01:12:36;15.20;99.90
23729;DHT22;12045;60.214;24.724;2023-08-20T01:15:05;15.30;99.90
23729;DHT22;12045;60.214;24.724;2023-08-20T01:17:33;15.40;99.90
23729;DHT22;12045;60.214;24.724;2023-08-20T01:20:01;15.40;99.90
23729;DHT22;12045;60.214;24.724;2023-08-20T01:28:36;15.30;99.90
23729;DHT22;12045;60.214;24.724;2023-08-20T01:31:04;15.20;99.90
23729;DHT22;12045;60.214;24.724;2023-08-20T01:33:33;15.20;99.90
23729;DHT22;12045;60.214;24.724;2023-08-20T01:36:01;15.20;99.90
23729;DHT22;12045;60.214;24.724;2023-08-20T01:38:29;15.20;99.90
23729;DHT22;12045;60.214;24.724;2023-08-20T01:40:56;15.10;99.90
23729;DHT22;12045;60.214;24.724;2023-08-20T01:43:24;15.10;99.90
23729;DHT22;12045;60.214;24.724;2023-08-20T01:45:51;15.00;99.90
23729;DHT22;12045;60.214;24.724;2023-08-20T01:48:19;15.10;99.90
23729;DHT22;12045;60.214;24.724;2023-08-20T01:50:46;15.10;99.90
23729;DHT22;12045;60.214;24.724;2023-08-20T01:53:14;15.00;99.90
23729;DHT22;12045;60.214;24.724;2023-08-20T01:55:41;15.00;99.90
23729;DHT22;12045;60.214;24.724;2023-08-20T01:58:09;15.00;99.90
23729;DHT22;12045;60.214;24.724;2023-08-20T02:00:36;15.00;99.90
23729;DHT22;12045;60.214;24.724;2023-08-20T02:03:04;15.10;99.90
23729;DHT22;12045;60.214;24.724;2023-08-20T02:05:31;15.10;99.90
23729;DHT22;12045;60.214;24.724;2023-08-20T02:08:00;15.10;99.90
23729;DHT22;12045;60.214;24.724;2023-08-20T02:10:27;15.10;99.90
23729;DHT22;12045;60.214;24.724;2023-08-20T02:12:55;15.10;99.90
23729;DHT22;12045;60.214;24.724;2023-08-20T02:15:22;15.10;99.90
23729;DHT22;12045;60.214;24.724;2023-08-20T02:17:50;15.10;99.90
23729;DHT22;12045;60.214;24.724;2023-08-20T02:20:17;15.10;99.90
23729;DHT22;12045;60.214;24.724;2023-08-20T02:22:45;15.10;99.90
23729;DHT22;12045;60.214;24.724;2023-08-20T02:25:13;15.10;99.90
23729;DHT22;12045;60.214;24.724;2023-08-20T02:27:41;15.00;99.90
23729;DHT22;12045;60.214;24.724;2023-08-20T02:30:09;14.90;99.90
23729;DHT22;12045;60.214;24.724;2023-08-20T02:32:36;15.00;99.90
23729;DHT22;12045;60.214;24.724;2023-08-20T02:35:04;14.90;99.90
23729;DHT22;12045;60.214;24.724;2023-08-20T02:37:32;14.90;99.90
23729;DHT22;12045;60.214;24.724;2023-08-20T02:40:00;14.90;99.90
23729;DHT22;12045;60.214;24.724;2023-08-20T02:42:28;14.80;99.90
23729;DHT22;12045;60.214;24.724;2023-08-20T02:44:56;14.70;99.90
23729;DHT22;12045;60.214;24.724;2023-08-20T02:47:23;14.70;99.90
23729;DHT22;12045;60.214;24.724;2023-08-20T02:49:51;14.70;99.90
23729;DHT22;12045;60.214;24.724;2023-08-20T02:52:18;14.70;99.90
23729;DHT22;12045;60.214;24.724;2023-08-20T02:54:45;14.70;99.90
23729;DHT22;12045;60.214;24.724;2023-08-20T02:57:13;14.70;99.90
23729;DHT22;12045;60.214;24.724;2023-08-20T02:59:40;14.70;99.90
23729;DHT22;12045;60.214;24.724;2023-08-20T03:02:08;14.70;99.90
23729;DHT22;12045;60.214;24.724;2023-08-20T03:04:35;14.60;99.90
23729;DHT22;12045;60.214;24.724;2023-08-20T03:07:03;14.60;99.90
23729;DHT22;12045;60.214;24.724;2023-08-20T03:09:30;14.60;99.90
23729;DHT22;12045;60.214;24.724;2023-08-20T03:12:00;14.60;99.90
23729;DHT22;12045;60.214;24.724;2023-08-20T03:14:28;14.60;99.90
23729;DHT22;12045;60.214;24.724;2023-08-20T03:16:57;14.60;99.90
23729;DHT22;12045;60.214;24.724;2023-08-20T03:19:24;14.60;99.90
23729;DHT22;12045;60.214;24.724;2023-08-20T03:21:52;14.60;99.90
23729;DHT22;12045;60.214;24.724;2023-08-20T03:24:20;14.60;99.90
23729;DHT22;12045;60.214;24.724;2023-08-20T03:26:47;14.50;99.90
23729;DHT22;12045;60.214;24.724;2023-08-20T03:29:15;14.50;99.90
23729;DHT22;12045;60.214;24.724;2023-08-20T03:31:42;14.60;99.90
23729;DHT22;12045;60.214;24.724;2023-08-20T03:34:10;14.60;99.90
23729;DHT22;12045;60.214;24.724;2023-08-20T03:36:37;14.60;99.90
23729;DHT22;12045;60.214;24.724;2023-08-20T03:39:05;14.60;99.90
23729;DHT22;12045;60.214;24.724;2023-08-20T03:41:32;14.60;99.90
23729;DHT22;12045;60.214;24.724;2023-08-20T03:44:00;14.60;99.90
23729;DHT22;12045;60.214;24.724;2023-08-20T03:46:27;14.60;99.90
23729;DHT22;12045;60.214;24.724;2023-08-20T03:48:55;14.70;99.90
23729;DHT22;12045;60.214;24.724;2023-08-20T03:51:22;14.70;99.90
23729;DHT22;12045;60.214;24.724;2023-08-20T03:53:50;14.70;99.90
23729;DHT22;12045;60.214;24.724;2023-08-20T03:56:17;14.70;99.90
23729;DHT22;12045;60.214;24.724;2023-08-20T03:58:45;14.70;99.90
23729;DHT22;12045;60.214;24.724;2023-08-20T04:01:13;14.80;99.90
23729;DHT22;12045;60.214;24.724;2023-08-20T04:03:40;14.90;99.90
23729;DHT22;12045;60.214;24.724;2023-08-20T04:06:08;14.90;99.90
23729;DHT22;12045;60.214;24.724;2023-08-20T04:08:35;14.90;99.90
23729;DHT22;12045;60.214;24.724;2023-08-20T04:11:03;14.90;99.90
23729;DHT22;12045;60.214;24.724;2023-08-20T04:13:31;14.90;99.90
23729;DHT22;12045;60.214;24.724;2023-08-20T04:15:58;14.80;99.90
23729;DHT22;12045;60.214;24.724;2023-08-20T04:18:26;14.80;99.90
23729;DHT22;12045;60.214;24.724;2023-08-20T04:20:54;14.80;99.90
23729;DHT22;12045;60.214;24.724;2023-08-20T04:23:22;14.90;99.90
23729;DHT22;12045;60.214;24.724;2023-08-20T04:25:50;14.90;99.90
23729;DHT22;12045;60.214;24.724;2023-08-20T04:28:17;14.90;99.90
23729;DHT22;12045;60.214;24.724;2023-08-20T04:30:46;15.00;99.90
23729;DHT22;12045;60.214;24.724;2023-08-20T04:33:14;15.00;99.90
23729;DHT22;12045;60.214;24.724;2023-08-20T04:35:42;14.90;99.90
23729;DHT22;12045;60.214;24.724;2023-08-20T04:38:09;14.90;99.90
23729;DHT22;12045;60.214;24.724;2023-08-20T04:40:37;15.00;99.90
23729;DHT22;12045;60.214;24.724;2023-08-20T04:43:05;15.00;99.90
23729;DHT22;12045;60.214;24.724;2023-08-20T04:45:32;14.80;99.90
23729;DHT22;12045;60.214;24.724;2023-08-20T04:48:00;14.80;99.90
23729;DHT22;12045;60.214;24.724;2023-08-20T04:50:27;14.90;99.90
23729;DHT22;12045;60.214;24.724;2023-08-20T04:52:55;15.10;99.90
23729;DHT22;12045;60.214;24.724;2023-08-20T04:55:27;15.00;99.90
23729;DHT22;12045;60.214;24.724;2023-08-20T04:57:54;15.00;99.90
23729;DHT22;12045;60.214;24.724;2023-08-20T05:00:22;15.10;99.90
23729;DHT22;12045;60.214;24.724;2023-08-20T05:02:50;15.10;99.90
23729;DHT22;12045;60.214;24.724;2023-08-20T05:05:17;15.10;99.90
23729;DHT22;12045;60.214;24.724;2023-08-20T05:07:45;15.20;99.90
23729;DHT22;12045;60.214;24.724;2023-08-20T05:10:13;15.10;99.90
23729;DHT22;12045;60.214;24.724;2023-08-20T05:12:40;15.10;99.90
23729;DHT22;12045;60.214;24.724;2023-08-20T05:15:08;15.20;99.90
23729;DHT22;12045;60.214;24.724;2023-08-20T05:17:35;15.30;99.90
23729;DHT22;12045;60.214;24.724;2023-08-20T05:20:03;15.20;99.90
23729;DHT22;12045;60.214;24.724;2023-08-20T05:22:30;15.30;99.90
23729;DHT22;12045;60.214;24.724;2023-08-20T05:24:58;15.20;99.90
23729;DHT22;12045;60.214;24.724;2023-08-20T05:27:26;15.30;99.90
23729;DHT22;12045;60.214;24.724;2023-08-20T05:29:54;15.30;99.90
23729;DHT22;12045;60.214;24.724;2023-08-20T05:32:21;15.40;99.90
23729;DHT22;12045;60.214;24.724;2023-08-20T05:34:49;15.40;99.90
23729;DHT22;12045;60.214;24.724;2023-08-20T05:37:17;15.50;99.90
23729;DHT22;12045;60.214;24.724;2023-08-20T05:39:44;15.50;99.90
23729;DHT22;12045;60.214;24.724;2023-08-20T05:42:12;15.50;99.90
23729;DHT22;12045;60.214;24.724;2023-08-20T05:44:40;15.50;99.90
23729;DHT22;12045;60.214;24.724;2023-08-20T05:47:07;15.50;99.90
23729;DHT22;12045;60.214;24.724;2023-08-20T05:49:34;15.60;99.90
23729;DHT22;12045;60.214;24.724;2023-08-20T05:52:03;15.60;99.90
23729;DHT22;12045;60.214;24.724;2023-08-20T05:54:31;15.70;99.90
23729;DHT22;12045;60.214;24.724;2023-08-20T05:56:58;15.70;99.90
23729;DHT22;12045;60.214;24.724;2023-08-20T05:59:26;15.70;99.90
23729;DHT22;12045;60.214;24.724;2023-08-20T06:01:53;15.70;99.90
23729;DHT22;12045;60.214;24.724;2023-08-20T06:04:22;15.70;99.90
23729;DHT22;12045;60.214;24.724;2023-08-20T06:06:49;15.80;99.90
23729;DHT22;12045;60.214;24.724;2023-08-20T06:09:17;15.80;99.90
23729;DHT22;12045;60.214;24.724;2023-08-20T06:11:45;15.80;99.90
23729;DHT22;12045;60.214;24.724;2023-08-20T06:14:12;15.80;99.90
23729;DHT22;12045;60.214;24.724;2023-08-20T06:16:40;15.90;99.90
23729;DHT22;12045;60.214;24.724;2023-08-20T06:19:07;15.90;99.90
23729;DHT22;12045;60.214;24.724;2023-08-20T06:21:35;15.90;99.90
23729;DHT22;12045;60.214;24.724;2023-08-20T06:24:03;15.90;99.90
23729;DHT22;12045;60.214;24.724;2023-08-20T06:26:30;16.00;99.90
23729;DHT22;12045;60.214;24.724;2023-08-20T06:28:58;15.90;99.90
23729;DHT22;12045;60.214;24.724;2023-08-20T06:31:26;15.90;99.90
23729;DHT22;12045;60.214;24.724;2023-08-20T06:33:54;15.90;99.90
23729;DHT22;12045;60.214;24.724;2023-08-20T06:36:21;15.90;99.90
23729;DHT22;12045;60.214;24.724;2023-08-20T06:38:49;15.90;99.90
23729;DHT22;12045;60.214;24.724;2023-08-20T06:41:18;16.00;99.90
23729;DHT22;12045;60.214;24.724;2023-08-20T06:43:45;16.10;99.90
23729;DHT22;12045;60.214;24.724;2023-08-20T06:46:12;16.20;99.90
23729;DHT22;12045;60.214;24.724;2023-08-20T06:48:40;16.30;99.90
23729;DHT22;12045;60.214;24.724;2023-08-20T06:51:12;16.30;99.90
23729;DHT22;12045;60.214;24.724;2023-08-20T06:53:41;16.40;99.90
23729;DHT22;12045;60.214;24.724;2023-08-20T06:56:09;16.40;99.90
23729;DHT22;12045;60.214;24.724;2023-08-20T06:58:38;16.40;99.90
23729;DHT22;12045;60.214;24.724;2023-08-20T07:01:06;16.40;99.90
23729;DHT22;12045;60.214;24.724;2023-08-20T07:03:38;16.40;99.90
23729;DHT22;12045;60.214;24.724;2023-08-20T07:06:05;16.30;99.90
23729;DHT22;12045;60.214;24.724;2023-08-20T07:08:34;16.40;99.90
23729;DHT22;12045;60.214;24.724;2023-08-20T07:11:02;16.50;99.90
23729;DHT22;12045;60.214;24.724;2023-08-20T07:13:29;16.60;99.90
23729;DHT22;12045;60.214;24.724;2023-08-20T07:15:57;16.60;99.90
23729;DHT22;12045;60.214;24.724;2023-08-20T07:18:24;16.70;99.90
23729;DHT22;12045;60.214;24.724;2023-08-20T07:20:52;16.70;99.90
23729;DHT22;12045;60.214;24.724;2023-08-20T07:23:19;16.70;99.90
23729;DHT22;12045;60.214;24.724;2023-08-20T07:25:47;16.80;99.90
23729;DHT22;12045;60.214;24.724;2023-08-20T07:28:15;16.80;99.90
23729;DHT22;12045;60.214;24.724;2023-08-20T07:30:48;16.80;99.90
23729;DHT22;12045;60.214;24.724;2023-08-20T07:33:15;16.80;99.90
23729;DHT22;12045;60.214;24.724;2023-08-20T07:35:42;16.90;99.90
23729;DHT22;12045;60.214;24.724;2023-08-20T07:38:10;16.80;99.90
23729;DHT22;12045;60.214;24.724;2023-08-20T07:40:37;16.90;99.90
23729;DHT22;12045;60.214;24.724;2023-08-20T07:43:05;16.90;99.90
23729;DHT22;12045;60.214;24.724;2023-08-20T07:45:32;16.90;99.90
23729;DHT22;12045;60.214;24.724;2023-08-20T07:47:59;17.00;99.90
23729;DHT22;12045;60.214;24.724;2023-08-20T07:50:27;17.10;99.90
23729;DHT22;12045;60.214;24.724;2023-08-20T07:52:54;17.10;99.90
23729;DHT22;12045;60.214;24.724;2023-08-20T07:55:22;17.20;99.90
23729;DHT22;12045;60.214;24.724;2023-08-20T07:57:49;17.30;99.90
23729;DHT22;12045;60.214;24.724;2023-08-20T08:00:18;17.40;99.90
23729;DHT22;12045;60.214;24.724;2023-08-20T08:02:45;17.50;99.90
23729;DHT22;12045;60.214;24.724;2023-08-20T08:05:13;17.60;99.90
23729;DHT22;12045;60.214;24.724;2023-08-20T08:07:41;17.70;99.90
23729;DHT22;12045;60.214;24.724;2023-08-20T08:10:09;17.80;99.90
23729;DHT22;12045;60.214;24.724;2023-08-20T08:12:36;17.90;99.90
23729;DHT22;12045;60.214;24.724;2023-08-20T08:15:04;17.90;99.90
23729;DHT22;12045;60.214;24.724;2023-08-20T08:17:32;17.90;99.90
23729;DHT22;12045;60.214;24.724;2023-08-20T08:20:00;18.00;99.90
23729;DHT22;12045;60.214;24.724;2023-08-20T08:22:27;18.10;99.90
23729;DHT22;12045;60.214;24.724;2023-08-20T08:24:55;18.20;99.90
23729;DHT22;12045;60.214;24.724;2023-08-20T08:27:22;18.30;99.90
23729;DHT22;12045;60.214;24.724;2023-08-20T08:29:50;18.40;99.90
23729;DHT22;12045;60.214;24.724;2023-08-20T08:32:18;18.40;99.90
23729;DHT22;12045;60.214;24.724;2023-08-20T08:34:45;18.40;99.90
23729;DHT22;12045;60.214;24.724;2023-08-20T08:37:13;18.50;99.90
23729;DHT22;12045;60.214;24.724;2023-08-20T08:39:40;18.60;99.90
23729;DHT22;12045;60.214;24.724;2023-08-20T08:42:10;18.60;99.90
23729;DHT22;12045;60.214;24.724;2023-08-20T08:44:39;18.70;99.90
23729;DHT22;12045;60.214;24.724;2023-08-20T08:47:08;18.80;99.90
23729;DHT22;12045;60.214;24.724;2023-08-20T08:49:36;18.70;99.90
23729;DHT22;12045;60.214;24.724;2023-08-20T08:52:04;18.70;99.90
23729;DHT22;12045;60.214;24.724;2023-08-20T08:54:35;18.80;99.90
23729;DHT22;12045;60.214;24.724;2023-08-20T08:57:03;18.80;99.90
23729;DHT22;12045;60.214;24.724;2023-08-20T08:59:31;18.90;99.90
23729;DHT22;12045;60.214;24.724;2023-08-20T09:01:59;18.90;99.90
23729;DHT22;12045;60.214;24.724;2023-08-20T09:04:26;19.00;99.90
23729;DHT22;12045;60.214;24.724;2023-08-20T09:06:55;18.90;99.90
23729;DHT22;12045;60.214;24.724;2023-08-20T09:09:30;18.90;99.90
23729;DHT22;12045;60.214;24.724;2023-08-20T09:11:58;18.90;99.90
23729;DHT22;12045;60.214;24.724;2023-08-20T09:14:29;19.00;99.90
23729;DHT22;12045;60.214;24.724;2023-08-20T09:17:01;19.00;99.90
23729;DHT22;12045;60.214;24.724;2023-08-20T09:19:30;19.10;99.90
23729;DHT22;12045;60.214;24.724;2023-08-20T09:22:02;19.10;99.90
23729;DHT22;12045;60.214;24.724;2023-08-20T09:24:54;19.30;99.90
23729;DHT22;12045;60.214;24.724;2023-08-20T09:27:23;19.40;99.90
23729;DHT22;12045;60.214;24.724;2023-08-20T09:29:55;19.40;99.90
23729;DHT22;12045;60.214;24.724;2023-08-20T09:32:25;19.40;99.90
23729;DHT22;12045;60.214;24.724;2023-08-20T09:34:54;19.50;99.90
23729;DHT22;12045;60.214;24.724;2023-08-20T09:37:23;19.50;99.90
23729;DHT22;12045;60.214;24.724;2023-08-20T09:39:51;19.50;99.90
23729;DHT22;12045;60.214;24.724;2023-08-20T09:42:19;19.50;99.90
23729;DHT22;12045;60.214;24.724;2023-08-20T09:44:46;19.60;99.90
23729;DHT22;12045;60.214;24.724;2023-08-20T09:47:18;19.60;99.90
23729;DHT22;12045;60.214;24.724;2023-08-20T09:49:48;19.60;99.90
23729;DHT22;12045;60.214;24.724;2023-08-20T09:52:21;19.60;99.90
23729;DHT22;12045;60.214;24.724;2023-08-20T09:55:06;19.60;99.90
23729;DHT22;12045;60.214;24.724;2023-08-20T09:57:37;19.60;99.90
23729;DHT22;12045;60.214;24.724;2023-08-20T10:00:07;19.70;99.90
23729;DHT22;12045;60.214;24.724;2023-08-20T10:02:38;19.70;99.90
23729;DHT22;12045;60.214;24.724;2023-08-20T10:05:06;19.70;99.90
23729;DHT22;12045;60.214;24.724;2023-08-20T10:07:35;19.70;99.90
23729;DHT22;12045;60.214;24.724;2023-08-20T10:10:08;19.80;99.90
23729;DHT22;12045;60.214;24.724;2023-08-20T10:12:37;19.80;99.90
23729;DHT22;12045;60.214;24.724;2023-08-20T10:15:10;19.80;99.90
23729;DHT22;12045;60.214;24.724;2023-08-20T10:17:41;19.90;99.90
23729;DHT22;12045;60.214;24.724;2023-08-20T10:20:09;20.00;99.90
23729;DHT22;12045;60.214;24.724;2023-08-20T10:22:41;20.10;99.90
23729;DHT22;12045;60.214;24.724;2023-08-20T10:25:11;20.20;99.90
23729;DHT22;12045;60.214;24.724;2023-08-20T10:27:42;20.20;99.90
23729;DHT22;12045;60.214;24.724;2023-08-20T10:30:11;20.20;99.90
23729;DHT22;12045;60.214;24.724;2023-08-20T10:32:45;20.20;99.90
23729;DHT22;12045;60.214;24.724;2023-08-20T10:35:46;20.20;99.90
23729;DHT22;12045;60.214;24.724;2023-08-20T10:38:16;20.30;99.90
23729;DHT22;12045;60.214;24.724;2023-08-20T10:40:58;20.40;99.90
23729;DHT22;12045;60.214;24.724;2023-08-20T10:43:29;20.50;99.90
23729;DHT22;12045;60.214;24.724;2023-08-20T10:48:38;20.70;99.90
23729;DHT22;12045;60.214;24.724;2023-08-20T10:51:12;20.80;99.90
23729;DHT22;12045;60.214;24.724;2023-08-20T10:53:41;20.90;99.90
23729;DHT22;12045;60.214;24.724;2023-08-20T10:56:12;20.80;99.90
23729;DHT22;12045;60.214;24.724;2023-08-20T10:58:45;20.70;99.90
23729;DHT22;12045;60.214;24.724;2023-08-20T11:01:20;20.70;99.90
23729;DHT22;12045;60.214;24.724;2023-08-20T11:03:49;20.70;99.90
23729;DHT22;12045;60.214;24.724;2023-08-20T11:06:18;20.80;99.90
23729;DHT22;12045;60.214;24.724;2023-08-20T11:08:46;20.60;99.90
23729;DHT22;12045;60.214;24.724;2023-08-20T11:11:13;20.60;99.90
23729;DHT22;12045;60.214;24.724;2023-08-20T11:13:41;20.60;99.90
23729;DHT22;12045;60.214;24.724;2023-08-20T11:16:10;20.80;99.90
23729;DHT22;12045;60.214;24.724;2023-08-20T11:18:38;20.90;99.90
23729;DHT22;12045;60.214;24.724;2023-08-20T11:21:05;21.00;99.90
23729;DHT22;12045;60.214;24.724;2023-08-20T11:23:35;21.10;99.90
23729;DHT22;12045;60.214;24.724;2023-08-20T11:26:03;21.10;99.90
23729;DHT22;12045;60.214;24.724;2023-08-20T11:28:30;21.30;99.90
23729;DHT22;12045;60.214;24.724;2023-08-20T11:30:58;21.40;99.90
23729;DHT22;12045;60.214;24.724;2023-08-20T11:33:28;21.50;99.90
23729;DHT22;12045;60.214;24.724;2023-08-20T11:35:57;21.50;99.90
23729;DHT22;12045;60.214;24.724;2023-08-20T11:38:25;21.50;99.90
23729;DHT22;12045;60.214;24.724;2023-08-20T11:40:54;21.50;99.90
23729;DHT22;12045;60.214;24.724;2023-08-20T11:43:22;21.60;99.90
23729;DHT22;12045;60.214;24.724;2023-08-20T11:45:49;21.60;99.90
23729;DHT22;12045;60.214;24.724;2023-08-20T11:48:17;21.80;99.90
23729;DHT22;12045;60.214;24.724;2023-08-20T11:50:45;22.10;99.90
23729;DHT22;12045;60.214;24.724;2023-08-20T11:53:13;22.30;99.90
23729;DHT22;12045;60.214;24.724;2023-08-20T11:55:40;22.30;99.90
23729;DHT22;12045;60.214;24.724;2023-08-20T11:58:14;22.30;99.90
23729;DHT22;12045;60.214;24.724;2023-08-20T12:00:42;22.30;99.90
23729;DHT22;12045;60.214;24.724;2023-08-20T12:03:09;22.30;99.90
23729;DHT22;12045;60.214;24.724;2023-08-20T12:05:41;22.30;99.90
23729;DHT22;12045;60.214;24.724;2023-08-20T12:08:15;22.20;99.90
23729;DHT22;12045;60.214;24.724;2023-08-20T12:10:46;22.10;99.90
23729;DHT22;12045;60.214;24.724;2023-08-20T12:13:14;22.00;99.90
23729;DHT22;12045;60.214;24.724;2023-08-20T12:15:41;22.00;99.90
23729;DHT22;12045;60.214;24.724;2023-08-20T12:18:09;21.90;99.90
23729;DHT22;12045;60.214;24.724;2023-08-20T12:20:37;22.00;99.90
23729;DHT22;12045;60.214;24.724;2023-08-20T12:23:06;22.30;99.90
23729;DHT22;12045;60.214;24.724;2023-08-20T12:25:35;22.50;99.90
23729;DHT22;12045;60.214;24.724;2023-08-20T12:28:04;22.70;99.90
23729;DHT22;12045;60.214;24.724;2023-08-20T12:30:33;23.10;99.90
23729;DHT22;12045;60.214;24.724;2023-08-20T12:33:06;23.50;99.90
23729;DHT22;12045;60.214;24.724;2023-08-20T12:35:34;23.90;99.90
23729;DHT22;12045;60.214;24.724;2023-08-20T12:38:01;24.10;99.90
23729;DHT22;12045;60.214;24.724;2023-08-20T12:40:30;24.20;99.90
23729;DHT22;12045;60.214;24.724;2023-08-20T12:42:57;24.20;99.90
23729;DHT22;12045;60.214;24.724;2023-08-20T12:45:25;24.10;99.90
23729;DHT22;12045;60.214;24.724;2023-08-20T12:47:53;24.10;99.90
23729;DHT22;12045;60.214;24.724;2023-08-20T12:50:21;24.20;99.90
23729;DHT22;12045;60.214;24.724;2023-08-20T12:52:48;24.30;99.90
23729;DHT22;12045;60.214;24.724;2023-08-20T12:55:18;24.20;99.90
23729;DHT22;12045;60.214;24.724;2023-08-20T12:57:53;24.20;99.90
23729;DHT22;12045;60.214;24.724;2023-08-20T13:00:23;24.30;99.90
23729;DHT22;12045;60.214;24.724;2023-08-20T13:02:53;24.40;99.90
23729;DHT22;12045;60.214;24.724;2023-08-20T13:05:23;24.50;99.90
23729;DHT22;12045;60.214;24.724;2023-08-20T13:07:52;24.40;99.90
23729;DHT22;12045;60.214;24.724;2023-08-20T13:10:20;24.40;99.90
23729;DHT22;12045;60.214;24.724;2023-08-20T13:12:52;24.40;99.90
23729;DHT22;12045;60.214;24.724;2023-08-20T13:15:22;24.00;99.90
23729;DHT22;12045;60.214;24.724;2023-08-20T13:17:51;23.70;99.90
23729;DHT22;12045;60.214;24.724;2023-08-20T13:20:19;23.50;99.90
23729;DHT22;12045;60.214;24.724;2023-08-20T13:22:51;23.20;99.90
23729;DHT22;12045;60.214;24.724;2023-08-20T13:25:19;23.00;99.90
23729;DHT22;12045;60.214;24.724;2023-08-20T13:27:48;22.60;99.90
23729;DHT22;12045;60.214;24.724;2023-08-20T13:30:17;22.40;99.90
23729;DHT22;12045;60.214;24.724;2023-08-20T13:32:45;22.10;99.90
23729;DHT22;12045;60.214;24.724;2023-08-20T13:35:12;22.00;99.90
23729;DHT22;12045;60.214;24.724;2023-08-20T13:37:41;21.80;99.90
23729;DHT22;12045;60.214;24.724;2023-08-20T13:40:10;21.80;99.90
23729;DHT22;12045;60.214;24.724;2023-08-20T13:42:38;21.60;99.90
23729;DHT22;12045;60.214;24.724;2023-08-20T13:45:06;21.60;99.90
23729;DHT22;12045;60.214;24.724;2023-08-20T13:47:34;21.50;99.90
23729;DHT22;12045;60.214;24.724;2023-08-20T13:50:01;21.50;99.90
23729;DHT22;12045;60.214;24.724;2023-08-20T13:52:32;21.40;99.90
23729;DHT22;12045;60.214;24.724;2023-08-20T13:54:59;21.30;99.90
23729;DHT22;12045;60.214;24.724;2023-08-20T13:57:27;21.20;99.90
23729;DHT22;12045;60.214;24.724;2023-08-20T13:59:54;21.20;99.90
23729;DHT22;12045;60.214;24.724;2023-08-20T14:02:22;21.20;99.90
23729;DHT22;12045;60.214;24.724;2023-08-20T14:04:49;21.20;99.90
23729;DHT22;12045;60.214;24.724;2023-08-20T14:07:18;21.10;99.90
23729;DHT22;12045;60.214;24.724;2023-08-20T14:09:45;21.10;99.90
23729;DHT22;12045;60.214;24.724;2023-08-20T14:12:13;21.10;99.90
23729;DHT22;12045;60.214;24.724;2023-08-20T14:14:40;21.00;99.90
23729;DHT22;12045;60.214;24.724;2023-08-20T14:17:07;20.90;99.90
23729;DHT22;12045;60.214;24.724;2023-08-20T14:19:36;20.80;99.90
23729;DHT22;12045;60.214;24.724;2023-08-20T14:22:03;20.80;99.90
23729;DHT22;12045;60.214;24.724;2023-08-20T14:24:31;20.70;99.90
23729;DHT22;12045;60.214;24.724;2023-08-20T14:26:58;20.70;99.90
23729;DHT22;12045;60.214;24.724;2023-08-20T14:29:26;20.70;99.90
23729;DHT22;12045;60.214;24.724;2023-08-20T14:31:53;20.60;99.90
23729;DHT22;12045;60.214;24.724;2023-08-20T14:34:21;20.60;99.90
23729;DHT22;12045;60.214;24.724;2023-08-20T14:36:48;20.60;99.90
23729;DHT22;12045;60.214;24.724;2023-08-20T14:39:16;20.70;99.90
23729;DHT22;12045;60.214;24.724;2023-08-20T14:41:44;20.70;99.90
23729;DHT22;12045;60.214;24.724;2023-08-20T14:44:11;20.60;99.90
23729;DHT22;12045;60.214;24.724;2023-08-20T14:46:38;20.60;99.90
23729;DHT22;12045;60.214;24.724;2023-08-20T14:49:06;20.50;99.90
23729;DHT22;12045;60.214;24.724;2023-08-20T14:51:34;20.50;99.90
23729;DHT22;12045;60.214;24.724;2023-08-20T14:54:02;20.40;99.90
23729;DHT22;12045;60.214;24.724;2023-08-20T14:56:31;20.40;99.90
23729;DHT22;12045;60.214;24.724;2023-08-20T14:58:58;20.30;99.90
23729;DHT22;12045;60.214;24.724;2023-08-20T15:01:26;20.20;99.90
23729;DHT22;12045;60.214;24.724;2023-08-20T15:03:54;20.10;99.90
23729;DHT22;12045;60.214;24.724;2023-08-20T15:06:22;20.10;99.90
23729;DHT22;12045;60.214;24.724;2023-08-20T15:08:51;20.10;99.90
23729;DHT22;12045;60.214;24.724;2023-08-20T15:11:18;20.10;99.90
23729;DHT22;12045;60.214;24.724;2023-08-20T15:13:46;20.00;99.90
23729;DHT22;12045;60.214;24.724;2023-08-20T15:16:13;20.00;99.90
23729;DHT22;12045;60.214;24.724;2023-08-20T15:18:41;20.00;99.90
23729;DHT22;12045;60.214;24.724;2023-08-20T15:21:10;20.00;99.90
23729;DHT22;12045;60.214;24.724;2023-08-20T15:23:38;20.00;99.90
23729;DHT22;12045;60.214;24.724;2023-08-20T15:26:06;20.00;99.90
23729;DHT22;12045;60.214;24.724;2023-08-20T15:28:34;20.00;99.90
23729;DHT22;12045;60.214;24.724;2023-08-20T15:31:02;20.00;99.90
23729;DHT22;12045;60.214;24.724;2023-08-20T15:33:29;20.10;99.90
23729;DHT22;12045;60.214;24.724;2023-08-20T15:35:58;20.20;99.90
23729;DHT22;12045;60.214;24.724;2023-08-20T15:38:29;20.30;99.90